createdAt,value
2019-04-01T00:01:47.094Z,29.80
2019-04-01T00:04:15.773Z,31.00
2019-04-01T00:06:44.410Z,25.35
2019-04-01T00:09:12.900Z,27.35
2019-04-01T00:11:41.581Z,25.08
2019-04-01T00:14:10.220Z,26.23
2019-04-01T00:16:38.717Z,27.17
2019-04-01T00:19:07.541Z,29.02
2019-04-01T00:21:36.176Z,28.65
2019-04-01T00:24:04.752Z,24.32
2019-04-01T00:26:33.299Z,23.27
2019-04-01T00:29:01.936Z,22.13
2019-04-01T00:31:30.573Z,25.85
2019-04-01T00:33:59.290Z,24.20
2019-04-01T00:36:27.800Z,27.05
2019-04-01T00:38:56.432Z,20.10
2019-04-01T00:41:25.127Z,24.12
2019-04-01T00:43:54.772Z,20.85
2019-04-01T00:46:23.679Z,21.50
2019-04-01T00:48:52.375Z,18.75
2019-04-01T00:51:21.016Z,25.27
2019-04-01T00:53:49.549Z,22.15
2019-04-01T00:56:18.279Z,19.52
2019-04-01T00:58:46.785Z,20.65
2019-04-01T01:01:15.421Z,22.13
2019-04-01T01:03:44.055Z,20.43
2019-04-01T01:06:12.691Z,20.37
2019-04-01T01:08:41.231Z,21.50
2019-04-01T01:11:09.760Z,21.65
2019-04-01T01:13:38.399Z,24.37
2019-04-01T01:16:07.066Z,26.82
2019-04-01T01:18:35.570Z,22.55
2019-04-01T01:21:04.210Z,22.85
2019-04-01T01:23:32.884Z,26.35
2019-04-01T01:26:01.528Z,23.02
2019-04-01T01:28:30.011Z,26.85
2019-04-01T01:30:58.612Z,22.37
2019-04-01T01:33:27.246Z,24.90
2019-04-01T01:35:55.749Z,22.30
2019-04-01T01:38:24.421Z,19.32
2019-04-01T01:40:53.071Z,24.10
2019-04-01T01:43:21.570Z,21.85
2019-04-01T01:45:50.353Z,21.73
2019-04-01T01:48:18.993Z,22.17
2019-04-01T01:50:48.606Z,21.87
2019-04-01T01:53:17.258Z,19.30
2019-04-01T01:55:45.744Z,21.07
2019-04-01T01:58:14.378Z,24.30
2019-04-01T02:00:43.052Z,27.15
2019-04-01T02:03:11.635Z,26.23
2019-04-01T02:05:40.203Z,31.30
2019-04-01T02:08:09.127Z,25.10
2019-04-01T02:10:37.762Z,24.57
2019-04-01T02:13:06.371Z,28.12
2019-04-01T02:15:34.988Z,30.92
2019-04-01T02:18:03.655Z,31.95
2019-04-01T02:20:32.357Z,33.23
2019-04-01T02:23:00.859Z,32.17
2019-04-01T02:25:29.376Z,35.30
2019-04-01T02:27:58.258Z,39.83
2019-04-01T02:30:26.909Z,30.88
2019-04-01T02:32:55.401Z,33.85
2019-04-01T02:35:24.202Z,36.10
2019-04-01T02:37:52.836Z,38.38
2019-04-01T02:40:22.087Z,40.65
2019-04-01T02:42:51.442Z,38.37
2019-04-01T02:45:19.913Z,38.73
2019-04-01T02:47:48.546Z,31.82
2019-04-01T02:50:17.410Z,35.13
2019-04-01T02:52:45.990Z,36.58
2019-04-01T02:55:14.615Z,33.95
2019-04-01T02:57:43.228Z,32.55
2019-04-01T03:00:12.150Z,29.00
2019-04-01T03:02:40.795Z,31.17
2019-04-01T03:05:09.567Z,26.07
2019-04-01T03:07:38.225Z,25.68
2019-04-01T03:10:06.861Z,26.05
2019-04-01T03:12:35.532Z,25.55
2019-04-01T03:15:05.765Z,28.97
2019-04-01T03:17:34.327Z,25.60
2019-04-01T03:20:03.060Z,28.07
2019-04-01T03:22:31.700Z,38.85
2019-04-01T03:25:00.534Z,24.02
2019-04-01T03:27:29.334Z,38.17
2019-04-01T03:29:57.897Z,30.62
2019-04-01T03:32:26.755Z,31.30
2019-04-01T03:34:55.442Z,33.78
2019-04-01T03:37:24.148Z,30.97
2019-04-01T03:39:52.804Z,34.03
2019-04-01T03:42:21.398Z,34.48
2019-04-01T03:44:54.675Z,28.87
2019-04-01T03:47:20.259Z,31.83
2019-04-01T03:49:48.929Z,35.47
2019-04-01T03:52:17.426Z,48.55
2019-04-01T03:54:46.018Z,29.83
2019-04-01T03:57:14.894Z,25.30
2019-04-01T03:59:43.520Z,30.50
2019-04-01T04:02:12.012Z,29.40
2019-04-01T04:04:40.541Z,29.67
2019-04-01T04:07:09.199Z,27.42
2019-04-01T04:09:37.829Z,36.83
2019-04-01T04:12:12.940Z,23.90
2019-04-01T04:14:51.077Z,22.30
2019-04-01T04:17:17.629Z,19.83
2019-04-01T04:19:46.334Z,17.30
2019-04-01T04:22:14.968Z,22.20
2019-04-01T04:24:43.674Z,29.13
2019-04-01T04:27:12.276Z,29.35
2019-04-01T04:29:40.811Z,25.72
2019-04-01T04:32:09.415Z,23.45
2019-04-01T04:34:38.084Z,24.60
2019-04-01T04:37:06.652Z,20.75
2019-04-01T04:39:35.300Z,16.05
2019-04-01T04:42:03.997Z,17.73
2019-04-01T04:44:32.642Z,17.25
2019-04-01T04:47:01.209Z,32.20
2019-04-01T04:49:29.744Z,35.88
2019-04-01T04:51:58.413Z,40.40
2019-04-01T04:54:26.892Z,27.10
2019-04-01T04:56:55.564Z,27.50
2019-04-01T04:59:24.206Z,25.97
2019-04-01T05:01:52.710Z,35.08
2019-04-01T05:04:21.403Z,19.92
2019-04-01T05:06:50.043Z,32.35
2019-04-01T05:09:18.675Z,25.02
2019-04-01T05:11:47.214Z,29.32
2019-04-01T05:14:15.719Z,31.97
2019-04-01T05:16:44.521Z,26.05
2019-04-01T05:19:13.223Z,21.45
2019-04-01T05:21:42.649Z,29.77
2019-04-01T05:24:12.096Z,32.08
2019-04-01T05:26:44.064Z,50.28
2019-04-01T05:29:15.271Z,54.93
2019-04-01T05:31:46.822Z,56.68
2019-04-01T05:34:17.579Z,37.53
2019-04-01T05:36:47.231Z,30.23
2019-04-01T05:39:16.147Z,36.88
2019-04-01T05:41:45.392Z,32.42
2019-04-01T05:44:14.286Z,31.35
2019-04-01T05:46:42.930Z,44.75
2019-04-01T05:49:11.856Z,41.92
2019-04-01T05:51:40.495Z,35.92
2019-04-01T05:54:09.137Z,34.65
2019-04-01T05:56:37.780Z,43.20
2019-04-01T05:59:06.353Z,31.10
2019-04-01T06:01:39.571Z,38.13
2019-04-01T06:04:08.319Z,31.15
2019-04-01T06:06:37.558Z,33.40
2019-04-01T06:09:08.141Z,31.23
2019-04-01T06:11:37.592Z,31.45
2019-04-01T06:14:06.322Z,26.97
2019-04-01T06:16:35.381Z,31.75
2019-04-01T06:19:05.947Z,25.97
2019-04-01T06:21:35.287Z,30.00
2019-04-01T06:24:04.506Z,28.95
2019-04-01T06:26:33.177Z,26.48
2019-04-01T06:29:01.844Z,27.30
2019-04-01T06:31:30.471Z,36.88
2019-04-01T06:33:59.211Z,27.77
2019-04-01T06:36:27.855Z,27.65
2019-04-01T06:38:56.499Z,38.42
2019-04-01T06:41:25.069Z,29.52
2019-04-01T06:43:53.886Z,38.75
2019-04-01T06:46:22.519Z,28.17
2019-04-01T06:48:51.162Z,27.17
2019-04-01T06:51:19.941Z,27.60
2019-04-01T06:53:48.677Z,29.32
2019-04-01T06:56:17.252Z,32.45
2019-04-01T06:58:46.045Z,31.77
2019-04-01T07:01:14.888Z,27.15
2019-04-01T07:03:43.521Z,27.90
2019-04-01T07:06:12.171Z,37.85
2019-04-01T07:08:40.917Z,27.75
2019-04-01T07:11:09.766Z,27.77
2019-04-01T07:13:40.142Z,36.75
2019-04-01T07:16:15.282Z,35.17
2019-04-01T07:18:39.117Z,28.23
2019-04-01T07:21:07.821Z,31.57
2019-04-01T07:23:36.470Z,31.57
2019-04-01T07:26:05.101Z,28.95
2019-04-01T07:28:33.825Z,38.08
2019-04-01T07:31:02.579Z,31.30
2019-04-01T07:33:31.225Z,33.80
2019-04-01T07:36:00.004Z,29.10
2019-04-01T07:38:28.572Z,30.92
2019-04-01T07:40:59.185Z,31.42
2019-04-01T07:43:27.875Z,23.67
2019-04-01T07:45:59.885Z,28.70
2019-04-01T07:48:26.826Z,31.87
2019-04-01T07:50:55.673Z,21.07
2019-04-01T07:53:24.312Z,34.78
2019-04-01T07:55:53.250Z,29.27
2019-04-01T07:58:22.035Z,28.07
2019-04-01T08:00:50.677Z,28.38
2019-04-01T08:03:19.316Z,28.67
2019-04-01T08:05:48.192Z,27.37
2019-04-01T08:08:17.232Z,22.93
2019-04-01T08:10:45.876Z,34.30
2019-04-01T08:13:14.573Z,26.27
2019-04-01T08:15:43.203Z,22.60
2019-04-01T08:18:11.842Z,36.13
2019-04-01T08:20:40.514Z,25.05
2019-04-01T08:23:09.168Z,26.40
2019-04-01T08:25:37.812Z,26.52
2019-04-01T08:28:06.570Z,36.60
2019-04-01T08:30:35.223Z,25.45
2019-04-01T08:33:04.100Z,28.17
2019-04-01T08:35:32.778Z,21.77
2019-04-01T08:38:01.422Z,16.57
2019-04-01T08:40:29.995Z,18.17
2019-04-01T08:42:58.671Z,18.92
2019-04-01T08:45:27.317Z,19.07
2019-04-01T08:47:56.064Z,21.75
2019-04-01T08:50:24.847Z,16.07
2019-04-01T08:52:53.604Z,16.77
2019-04-01T08:55:22.172Z,53.05
2019-04-01T08:57:50.828Z,25.55
2019-04-01T09:00:19.783Z,15.18
2019-04-01T09:02:48.527Z,24.85
2019-04-01T09:05:17.197Z,14.63
2019-04-01T09:07:45.766Z,14.43
2019-04-01T09:10:14.613Z,18.45
2019-04-01T09:12:44.146Z,15.40
2019-04-01T09:15:13.402Z,14.78
2019-04-01T09:17:42.067Z,15.98
2019-04-01T09:20:11.543Z,15.65
2019-04-01T09:22:40.195Z,15.18
2019-04-01T09:25:08.833Z,14.13
2019-04-01T09:27:37.440Z,10.90
2019-04-01T09:30:08.192Z,11.38
2019-04-01T09:32:36.835Z,12.55
2019-04-01T09:35:06.968Z,10.10
2019-04-01T09:37:35.608Z,13.98
2019-04-01T09:40:07.153Z,14.75
2019-04-01T09:42:35.721Z,13.03
2019-04-01T09:45:06.756Z,14.58
2019-04-01T09:47:35.450Z,14.70
2019-04-01T09:50:05.099Z,11.18
2019-04-01T09:52:33.608Z,13.95
2019-04-01T09:55:05.890Z,11.73
2019-04-01T09:57:32.662Z,10.55
2019-04-01T10:00:01.162Z,13.13
2019-04-01T10:02:32.055Z,16.40
2019-04-01T10:05:00.414Z,13.35
2019-04-01T10:07:29.157Z,8.20
2019-04-01T10:09:57.882Z,7.55
2019-04-01T10:12:26.559Z,7.60
2019-04-01T10:14:55.053Z,4.37
2019-04-01T10:17:23.576Z,8.05
2019-04-01T10:19:52.212Z,5.25
2019-04-01T10:22:20.849Z,5.83
2019-04-01T10:24:49.467Z,6.22
2019-04-01T10:27:18.041Z,6.80
2019-04-01T10:29:46.779Z,5.30
2019-04-01T10:32:15.698Z,7.17
2019-04-01T10:34:44.181Z,7.95
2019-04-01T10:37:12.807Z,7.47
2019-04-01T10:39:41.654Z,6.30
2019-04-01T10:42:10.290Z,5.33
2019-04-01T10:44:38.790Z,6.08
2019-04-01T10:47:07.635Z,5.83
2019-04-01T10:49:36.388Z,5.97
2019-04-01T10:52:04.997Z,9.43
2019-04-01T10:54:33.930Z,4.55
2019-04-01T10:57:02.555Z,5.62
2019-04-01T10:59:31.153Z,6.72
2019-04-01T11:01:59.676Z,6.80
2019-04-01T11:04:28.321Z,10.03
2019-04-01T11:06:57.018Z,7.08
2019-04-01T11:09:37.688Z,5.50
2019-04-01T11:11:55.986Z,8.30
2019-04-01T11:14:24.936Z,5.05
2019-04-01T11:16:53.633Z,5.62
2019-04-01T11:19:22.248Z,5.55
2019-04-01T11:21:50.819Z,4.78
2019-04-01T11:24:19.499Z,4.65
2019-04-01T11:26:48.329Z,5.45
2019-04-01T11:29:16.892Z,5.05
2019-04-01T11:31:45.563Z,8.98
2019-04-01T11:34:14.841Z,6.05
2019-04-01T11:36:43.506Z,4.28
2019-04-01T11:39:13.406Z,3.70
2019-04-01T11:41:42.086Z,4.78
2019-04-01T11:44:10.644Z,4.17
2019-04-01T11:46:39.179Z,3.55
2019-04-01T11:49:07.786Z,7.65
2019-04-01T11:51:39.715Z,4.62
2019-04-01T11:54:08.262Z,4.15
2019-04-01T11:56:37.155Z,6.25
2019-04-01T11:59:05.783Z,5.62
2019-04-01T12:01:36.750Z,7.65
2019-04-01T12:04:04.799Z,5.05
2019-04-01T12:06:33.393Z,5.17
2019-04-01T12:09:02.046Z,8.00
2019-04-01T12:11:30.550Z,5.33
2019-04-01T12:13:59.180Z,5.92
2019-04-01T12:16:28.084Z,12.40
2019-04-01T12:18:56.638Z,6.12
2019-04-01T12:21:25.202Z,4.58
2019-04-01T12:23:54.033Z,8.58
2019-04-01T12:26:22.665Z,5.50
2019-04-01T12:28:51.226Z,8.40
2019-04-01T12:31:21.595Z,5.42
2019-04-01T12:33:50.745Z,3.72
2019-04-01T12:36:19.607Z,5.05
2019-04-01T12:38:48.255Z,7.22
2019-04-01T12:41:16.827Z,4.53
2019-04-01T12:43:45.465Z,5.10
2019-04-01T12:46:14.143Z,4.50
2019-04-01T12:48:42.786Z,6.60
2019-04-01T12:51:11.413Z,5.53
2019-04-01T12:53:40.087Z,5.37
2019-04-01T12:56:08.738Z,5.35
2019-04-01T12:58:37.303Z,4.40
2019-04-01T13:01:05.890Z,5.50
2019-04-01T13:03:34.521Z,4.25
2019-04-01T13:06:03.155Z,4.53
2019-04-01T13:08:31.693Z,3.77
2019-04-01T13:11:00.269Z,4.65
2019-04-01T13:13:28.904Z,4.65
2019-04-01T13:15:57.751Z,5.28
2019-04-01T13:18:26.308Z,5.55
2019-04-01T13:20:54.872Z,8.93
2019-04-01T13:23:23.508Z,6.70
2019-04-01T13:25:52.140Z,4.22
2019-04-01T13:28:20.966Z,4.58
2019-04-01T13:30:50.742Z,4.08
2019-04-01T13:33:19.220Z,4.22
2019-04-01T13:35:47.957Z,3.37
2019-04-01T13:38:16.584Z,5.12
2019-04-01T13:40:45.211Z,4.55
2019-04-01T13:43:16.813Z,4.03
2019-04-01T13:45:44.310Z,3.75
2019-04-01T13:48:12.933Z,4.35
2019-04-01T13:50:42.077Z,5.85
2019-04-01T13:53:10.660Z,4.25
2019-04-01T13:55:39.231Z,5.05
2019-04-01T13:58:08.167Z,4.97
2019-04-01T14:00:36.802Z,4.70
2019-04-01T14:03:05.534Z,4.42
2019-04-01T14:05:34.145Z,4.65
2019-04-01T14:08:05.712Z,4.65
2019-04-01T14:10:32.986Z,4.67
2019-04-01T14:13:01.671Z,4.67
2019-04-01T14:15:30.298Z,6.53
2019-04-01T14:17:58.880Z,4.95
2019-04-01T14:20:27.488Z,4.28
2019-04-01T14:22:56.133Z,4.85
2019-04-01T14:25:24.767Z,4.03
2019-04-01T14:27:53.297Z,4.87
2019-04-01T14:30:21.933Z,9.35
2019-04-01T14:32:50.575Z,3.98
2019-04-01T14:35:19.477Z,5.28
2019-04-01T14:37:47.978Z,4.35
2019-04-01T14:40:16.620Z,5.05
2019-04-01T14:42:46.996Z,3.70
2019-04-01T14:45:15.843Z,4.28
2019-04-01T14:47:56.635Z,4.37
2019-04-01T14:50:15.535Z,4.50
2019-04-01T14:52:44.096Z,5.10
2019-04-01T14:55:12.829Z,6.60
2019-04-01T14:57:41.516Z,6.33
2019-04-01T15:00:13.002Z,5.20
2019-04-01T15:02:41.734Z,5.72
2019-04-01T15:05:10.502Z,5.22
2019-04-01T15:07:39.227Z,6.45
2019-04-01T15:10:08.505Z,7.45
2019-04-01T15:12:37.129Z,5.12
2019-04-01T15:15:07.760Z,7.05
2019-04-01T15:17:37.026Z,5.87
2019-04-01T15:20:09.148Z,6.33
2019-04-01T15:22:37.715Z,7.33
2019-04-01T15:25:07.330Z,8.03
2019-04-01T15:27:35.985Z,6.12
2019-04-01T15:30:06.534Z,7.12
2019-04-01T15:32:35.159Z,6.37
2019-04-01T15:35:04.630Z,7.72
2019-04-01T15:37:33.195Z,7.62
2019-04-01T15:40:01.679Z,8.20
2019-04-01T15:42:30.605Z,7.40
2019-04-01T15:44:59.241Z,8.90
2019-04-01T15:47:27.809Z,7.12
2019-04-01T15:49:56.359Z,8.18
2019-04-01T15:52:25.006Z,8.28
2019-04-01T15:54:53.630Z,9.43
2019-04-01T15:57:22.170Z,7.65
2019-04-01T15:59:50.726Z,8.03
2019-04-01T16:02:19.443Z,8.75
2019-04-01T16:04:48.343Z,7.85
2019-04-01T16:07:16.834Z,9.70
2019-04-01T16:09:45.465Z,9.10
2019-04-01T16:12:16.015Z,9.23
2019-04-01T16:14:44.726Z,9.95
2019-04-01T16:17:13.356Z,7.85
2019-04-01T16:19:42.026Z,8.55
2019-04-01T16:22:10.519Z,8.60
2019-04-01T16:24:39.032Z,9.48
2019-04-01T16:27:07.942Z,11.00
2019-04-01T16:29:36.578Z,7.85
2019-04-01T16:32:05.144Z,8.63
2019-04-01T16:34:34.722Z,8.80
2019-04-01T16:37:03.551Z,6.87
2019-04-01T16:39:32.193Z,7.15
2019-04-01T16:42:01.071Z,8.73
2019-04-01T16:44:29.702Z,7.70
2019-04-01T16:47:00.770Z,8.60
2019-04-01T16:49:29.305Z,9.68
2019-04-01T16:51:57.931Z,8.13
2019-04-01T16:54:28.037Z,7.37
2019-04-01T16:56:56.602Z,8.88
2019-04-01T16:59:25.249Z,8.00
2019-04-01T17:01:53.953Z,13.13
2019-04-01T17:04:22.630Z,6.53
2019-04-01T17:06:51.124Z,8.60
2019-04-01T17:09:19.633Z,13.03
2019-04-01T17:11:48.583Z,9.20
2019-04-01T17:14:17.217Z,12.70
2019-04-01T17:16:46.392Z,7.58
2019-04-01T17:19:14.924Z,13.13
2019-04-01T17:21:43.559Z,11.10
2019-04-01T17:24:12.195Z,10.13
2019-04-01T17:26:50.335Z,11.38
2019-04-01T17:29:19.755Z,13.13
2019-04-01T17:31:48.387Z,9.88
2019-04-01T17:34:16.985Z,10.88
2019-04-01T17:36:45.619Z,16.12
2019-04-01T17:39:14.334Z,12.30
2019-04-01T17:41:46.315Z,13.75
2019-04-01T17:44:14.543Z,16.60
2019-04-01T17:46:43.147Z,7.03
2019-04-01T17:49:11.836Z,10.23
2019-04-01T17:51:40.468Z,11.55
2019-04-01T17:54:08.972Z,8.35
2019-04-01T17:56:37.806Z,9.85
2019-04-01T17:59:06.443Z,12.15
2019-04-01T18:01:35.078Z,10.43
2019-04-01T18:04:03.687Z,13.13
2019-04-01T18:06:32.328Z,11.38
2019-04-01T18:09:01.028Z,11.85
2019-04-01T18:11:29.652Z,9.60
2019-04-01T18:13:58.219Z,13.80
2019-04-01T18:16:26.853Z,10.15
2019-04-01T18:18:55.521Z,9.05
2019-04-01T18:21:24.042Z,14.07
2019-04-01T18:23:52.609Z,11.25
2019-04-01T18:26:21.322Z,11.78
2019-04-01T18:28:49.963Z,14.40
2019-04-01T18:31:18.452Z,12.05
2019-04-01T18:33:56.081Z,18.80
2019-04-01T18:36:17.453Z,14.28
2019-04-01T18:38:46.470Z,18.02
2019-04-01T18:41:15.290Z,16.65
2019-04-01T18:43:43.872Z,15.78
2019-04-01T18:46:12.500Z,13.45
2019-04-01T18:48:41.154Z,12.07
2019-04-01T18:51:09.792Z,24.02
2019-04-01T18:53:38.424Z,17.80
2019-04-01T18:56:06.961Z,18.92
2019-04-01T18:58:35.470Z,16.05
2019-04-01T19:01:04.589Z,18.90
2019-04-01T19:03:33.476Z,17.52
2019-04-01T19:06:02.038Z,16.62
2019-04-01T19:08:30.541Z,17.37
2019-04-01T19:11:02.497Z,15.83
2019-04-01T19:13:29.585Z,12.25
2019-04-01T19:15:59.256Z,13.72
2019-04-01T19:18:28.350Z,10.68
2019-04-01T19:21:01.687Z,12.80
2019-04-01T19:23:27.329Z,12.78
2019-04-01T19:25:55.873Z,10.08
2019-04-01T19:28:24.503Z,11.95
2019-04-01T19:30:52.991Z,14.10
2019-04-01T19:33:21.530Z,9.90
2019-04-01T19:35:50.172Z,8.95
2019-04-01T19:38:21.311Z,9.68
2019-04-01T19:40:49.164Z,15.00
2019-04-01T19:43:17.666Z,10.53
2019-04-01T19:45:46.370Z,11.28
2019-04-01T19:48:15.235Z,9.30
2019-04-01T19:50:43.734Z,7.97
2019-04-01T19:53:12.225Z,9.48
2019-04-01T19:55:43.720Z,10.43
2019-04-01T19:58:11.423Z,11.57
2019-04-01T20:00:39.923Z,9.40
2019-04-01T20:03:08.605Z,12.60
2019-04-01T20:05:37.267Z,17.67
2019-04-01T20:08:05.842Z,11.90
2019-04-01T20:10:34.504Z,9.78
2019-04-01T20:13:03.139Z,9.58
2019-04-01T20:15:31.704Z,11.65
2019-04-01T20:18:00.384Z,10.08
2019-04-01T20:20:29.014Z,9.15
2019-04-01T20:22:57.645Z,8.78
2019-04-01T20:25:26.251Z,11.35
2019-04-01T20:27:54.750Z,11.22
2019-04-01T20:30:23.891Z,12.18
2019-04-01T20:32:52.586Z,12.10
2019-04-01T20:35:23.496Z,11.73
2019-04-01T20:37:51.465Z,9.10
2019-04-01T20:40:20.437Z,11.68
2019-04-01T20:42:49.070Z,12.18
2019-04-01T20:45:17.735Z,9.80
2019-04-01T20:47:46.414Z,7.53
2019-04-01T20:50:16.544Z,11.43
2019-04-01T20:52:45.218Z,15.60
2019-04-01T20:55:14.254Z,7.55
2019-04-01T20:57:42.750Z,10.55
2019-04-01T21:00:11.485Z,11.28
2019-04-01T21:02:40.192Z,11.88
2019-04-01T21:05:09.349Z,6.67
2019-04-01T21:07:37.859Z,8.00
2019-04-01T21:10:07.824Z,7.72
2019-04-01T21:12:37.246Z,7.05
2019-04-01T21:15:07.458Z,8.50
2019-04-01T21:17:35.998Z,6.78
2019-04-01T21:20:06.832Z,6.08
2019-04-01T21:22:36.628Z,6.12
2019-04-01T21:25:07.041Z,7.10
2019-04-01T21:27:35.656Z,7.83
2019-04-01T21:30:07.022Z,5.30
2019-04-01T21:32:35.704Z,5.97
2019-04-01T21:35:05.433Z,6.90
2019-04-01T21:37:35.026Z,4.00
2019-04-01T21:40:05.391Z,4.85
2019-04-01T21:42:34.128Z,6.10
2019-04-01T21:45:03.002Z,4.78
2019-04-01T21:47:31.641Z,5.20
2019-04-01T21:50:00.149Z,4.92
2019-04-01T21:52:28.659Z,6.28
2019-04-01T21:54:57.458Z,5.33
2019-04-01T21:57:26.212Z,3.85
2019-04-01T21:59:54.744Z,5.28
2019-04-01T22:02:35.205Z,5.25
2019-04-01T22:04:53.734Z,5.37
2019-04-01T22:07:22.328Z,7.50
2019-04-01T22:09:50.967Z,7.58
2019-04-01T22:12:19.584Z,4.75
2019-04-01T22:14:48.207Z,4.22
2019-04-01T22:17:17.097Z,4.58
2019-04-01T22:19:45.667Z,7.97
2019-04-01T22:22:14.333Z,4.65
2019-04-01T22:24:42.849Z,3.98
2019-04-01T22:27:11.414Z,7.30
2019-04-01T22:29:40.089Z,9.55
2019-04-01T22:32:08.721Z,4.72
2019-04-01T22:34:38.070Z,11.33
2019-04-01T22:37:08.113Z,21.52
2019-04-01T22:39:36.857Z,23.25
2019-04-01T22:42:05.512Z,15.95
2019-04-01T22:44:34.031Z,16.15
2019-04-01T22:47:02.666Z,21.77
2019-04-01T22:49:32.066Z,15.40
2019-04-01T22:52:00.679Z,18.02
2019-04-01T22:54:30.216Z,19.95
2019-04-01T22:56:59.631Z,22.42
2019-04-01T22:59:28.240Z,21.25
2019-04-01T23:01:59.372Z,21.00
2019-04-01T23:04:27.117Z,21.57
2019-04-01T23:06:55.916Z,25.50
2019-04-01T23:09:24.418Z,17.52
2019-04-01T23:11:53.496Z,19.07
2019-04-01T23:14:22.529Z,9.28
2019-04-01T23:16:51.166Z,8.45
2019-04-01T23:19:19.734Z,9.95
2019-04-01T23:21:48.327Z,6.67
2019-04-01T23:24:16.953Z,7.33
2019-04-01T23:26:45.590Z,8.55
2019-04-01T23:29:14.129Z,8.05
2019-04-01T23:31:42.698Z,9.88
2019-04-01T23:34:11.341Z,8.83
2019-04-01T23:36:40.195Z,11.22
2019-04-01T23:39:09.597Z,9.90
2019-04-01T23:41:38.089Z,11.83
2019-04-01T23:44:06.753Z,14.43
2019-04-01T23:46:35.398Z,12.95
2019-04-01T23:49:04.061Z,12.68
2019-04-01T23:51:33.540Z,11.48
2019-04-01T23:54:02.276Z,12.50
2019-04-01T23:56:31.275Z,14.20
2019-04-01T23:58:59.918Z,17.77
